sensor_id;sensor_type;location;lat;lon;timestamp;temperature;humidity
7738;DHT22;29398;45.328;5.558;2022-12-18T00:00:40;0.10;99.90
7738;DHT22;29398;45.328;5.558;2022-12-18T00:01:42;0.10;99.90
7738;DHT22;29398;45.328;5.558;2022-12-18T00:02:43;0.10;99.90
7738;DHT22;29398;45.328;5.558;2022-12-18T00:03:46;0.30;99.90
7738;DHT22;29398;45.328;5.558;2022-12-18T00:04:48;0.30;99.90
7738;DHT22;29398;45.328;5.558;2022-12-18T00:05:51;0.30;99.90
7738;DHT22;29398;45.328;5.558;2022-12-18T00:06:53;0.30;99.90
7738;DHT22;29398;45.328;5.558;2022-12-18T00:07:55;0.30;99.90
7738;DHT22;29398;45.328;5.558;2022-12-18T00:08:57;0.20;99.90
7738;DHT22;29398;45.328;5.558;2022-12-18T00:09:59;0.20;99.90
7738;DHT22;29398;45.328;5.558;2022-12-18T00:11:03;0.20;99.90
7738;DHT22;29398;45.328;5.558;2022-12-18T00:12:06;0.10;99.90
7738;DHT22;29398;45.328;5.558;2022-12-18T00:13:07;0.10;99.90
7738;DHT22;29398;45.328;5.558;2022-12-18T00:14:12;0.30;99.90
7738;DHT22;29398;45.328;5.558;2022-12-18T00:15:13;0.20;99.90
7738;DHT22;29398;45.328;5.558;2022-12-18T00:16:17;0.20;99.90
7738;DHT22;29398;45.328;5.558;2022-12-18T00:17:19;0.20;99.90
7738;DHT22;29398;45.328;5.558;2022-12-18T00:18:21;0.20;99.90
7738;DHT22;29398;45.328;5.558;2022-12-18T00:19:22;0.20;99.90
7738;DHT22;29398;45.328;5.558;2022-12-18T00:20:25;0.20;99.90
7738;DHT22;29398;45.328;5.558;2022-12-18T00:21:27;0.30;99.90
7738;DHT22;29398;45.328;5.558;2022-12-18T00:22:29;0.30;99.90
7738;DHT22;29398;45.328;5.558;2022-12-18T00:23:31;0.30;99.90
7738;DHT22;29398;45.328;5.558;2022-12-18T00:24:33;0.40;99.90
7738;DHT22;29398;45.328;5.558;2022-12-18T00:25:35;0.30;99.90
7738;DHT22;29398;45.328;5.558;2022-12-18T00:26:38;0.30;99.90
7738;DHT22;29398;45.328;5.558;2022-12-18T00:27:39;0.30;99.90
7738;DHT22;29398;45.328;5.558;2022-12-18T00:28:41;0.00;99.90
7738;DHT22;29398;45.328;5.558;2022-12-18T00:29:44;0.40;99.90
7738;DHT22;29398;45.328;5.558;2022-12-18T00:30:47;0.30;99.90
7738;DHT22;29398;45.328;5.558;2022-12-18T00:31:51;0.30;99.90
7738;DHT22;29398;45.328;5.558;2022-12-18T00:32:54;0.30;99.90
7738;DHT22;29398;45.328;5.558;2022-12-18T00:33:55;0.30;99.90
7738;DHT22;29398;45.328;5.558;2022-12-18T00:34:58;0.30;99.90
7738;DHT22;29398;45.328;5.558;2022-12-18T00:36:00;0.30;99.90
7738;DHT22;29398;45.328;5.558;2022-12-18T00:37:03;0.30;99.90
7738;DHT22;29398;45.328;5.558;2022-12-18T00:38:04;0.30;99.90
7738;DHT22;29398;45.328;5.558;2022-12-18T00:39:07;0.30;99.90
7738;DHT22;29398;45.328;5.558;2022-12-18T00:40:09;0.30;99.90
7738;DHT22;29398;45.328;5.558;2022-12-18T00:41:13;0.30;99.90
7738;DHT22;29398;45.328;5.558;2022-12-18T00:42:14;0.30;99.90
7738;DHT22;29398;45.328;5.558;2022-12-18T00:43:33;0.30;99.90
7738;DHT22;29398;45.328;5.558;2022-12-18T00:44:34;0.30;99.90
7738;DHT22;29398;45.328;5.558;2022-12-18T00:45:37;0.30;99.90
7738;DHT22;29398;45.328;5.558;2022-12-18T00:46:39;0.30;99.90
7738;DHT22;29398;45.328;5.558;2022-12-18T00:47:41;0.30;99.90
7738;DHT22;29398;45.328;5.558;2022-12-18T00:48:42;0.20;99.90
7738;DHT22;29398;45.328;5.558;2022-12-18T00:49:44;0.30;99.90
7738;DHT22;29398;45.328;5.558;2022-12-18T00:50:47;0.20;99.90
7738;DHT22;29398;45.328;5.558;2022-12-18T00:51:50;0.30;99.90
7738;DHT22;29398;45.328;5.558;2022-12-18T00:52:51;0.20;99.90
7738;DHT22;29398;45.328;5.558;2022-12-18T00:53:53;0.10;99.90
7738;DHT22;29398;45.328;5.558;2022-12-18T00:54:55;0.20;99.90
7738;DHT22;29398;45.328;5.558;2022-12-18T00:55:57;0.10;99.90
7738;DHT22;29398;45.328;5.558;2022-12-18T00:56:58;0.10;99.90
7738;DHT22;29398;45.328;5.558;2022-12-18T00:58:00;0.10;99.90
7738;DHT22;29398;45.328;5.558;2022-12-18T00:59:02;0.00;99.90
7738;DHT22;29398;45.328;5.558;2022-12-18T01:00:08;0.00;99.90
7738;DHT22;29398;45.328;5.558;2022-12-18T01:01:11;0.00;99.90
7738;DHT22;29398;45.328;5.558;2022-12-18T01:02:13;0.00;99.90
7738;DHT22;29398;45.328;5.558;2022-12-18T01:03:14;0.00;99.90
7738;DHT22;29398;45.328;5.558;2022-12-18T01:04:18;0.00;99.90
7738;DHT22;29398;45.328;5.558;2022-12-18T01:05:20;0.00;99.90
7738;DHT22;29398;45.328;5.558;2022-12-18T01:06:22;-0.10;99.90
7738;DHT22;29398;45.328;5.558;2022-12-18T01:07:23;-0.10;99.90
7738;DHT22;29398;45.328;5.558;2022-12-18T01:08:25;-0.10;99.90
7738;DHT22;29398;45.328;5.558;2022-12-18T01:09:26;-0.20;99.90
7738;DHT22;29398;45.328;5.558;2022-12-18T01:10:28;-0.20;99.90
7738;DHT22;29398;45.328;5.558;2022-12-18T01:11:31;-0.20;99.90
7738;DHT22;29398;45.328;5.558;2022-12-18T01:12:34;-0.20;99.90
7738;DHT22;29398;45.328;5.558;2022-12-18T01:13:35;-0.20;99.90
7738;DHT22;29398;45.328;5.558;2022-12-18T01:14:37;-0.20;99.90
7738;DHT22;29398;45.328;5.558;2022-12-18T01:15:38;-0.30;99.90
7738;DHT22;29398;45.328;5.558;2022-12-18T01:16:42;-0.30;99.90
7738;DHT22;29398;45.328;5.558;2022-12-18T01:17:44;-0.20;99.90
7738;DHT22;29398;45.328;5.558;2022-12-18T01:18:46;-0.30;99.90
7738;DHT22;29398;45.328;5.558;2022-12-18T01:19:47;-0.30;99.90
7738;DHT22;29398;45.328;5.558;2022-12-18T01:20:49;-0.20;99.90
7738;DHT22;29398;45.328;5.558;2022-12-18T01:21:50;-0.20;99.90
7738;DHT22;29398;45.328;5.558;2022-12-18T01:22:52;-0.10;99.90
7738;DHT22;29398;45.328;5.558;2022-12-18T01:23:54;-0.10;99.90
7738;DHT22;29398;45.328;5.558;2022-12-18T01:24:57;-0.10;99.90
7738;DHT22;29398;45.328;5.558;2022-12-18T01:26:04;-0.20;99.90
7738;DHT22;29398;45.328;5.558;2022-12-18T01:27:09;-0.30;99.90
7738;DHT22;29398;45.328;5.558;2022-12-18T01:28:10;-0.30;99.90
7738;DHT22;29398;45.328;5.558;2022-12-18T01:29:12;-0.30;99.90
7738;DHT22;29398;45.328;5.558;2022-12-18T01:30:13;-0.30;99.90
7738;DHT22;29398;45.328;5.558;2022-12-18T01:31:17;-0.30;99.90
7738;DHT22;29398;45.328;5.558;2022-12-18T01:32:20;-0.30;99.90
7738;DHT22;29398;45.328;5.558;2022-12-18T01:33:24;-0.30;99.90
7738;DHT22;29398;45.328;5.558;2022-12-18T01:34:25;-0.40;99.90
7738;DHT22;29398;45.328;5.558;2022-12-18T01:35:27;-0.40;99.90
7738;DHT22;29398;45.328;5.558;2022-12-18T01:36:30;-0.20;99.90
7738;DHT22;29398;45.328;5.558;2022-12-18T01:37:32;-0.20;99.90
7738;DHT22;29398;45.328;5.558;2022-12-18T01:38:33;-0.30;99.90
7738;DHT22;29398;45.328;5.558;2022-12-18T01:39:36;-0.30;99.90
7738;DHT22;29398;45.328;5.558;2022-12-18T01:40:38;-0.30;99.90
7738;DHT22;29398;45.328;5.558;2022-12-18T01:41:39;-0.30;99.90
7738;DHT22;29398;45.328;5.558;2022-12-18T01:42:59;-0.30;99.90
7738;DHT22;29398;45.328;5.558;2022-12-18T01:45:26;-0.30;99.90
7738;DHT22;29398;45.328;5.558;2022-12-18T01:46:29;-0.30;99.90
7738;DHT22;29398;45.328;5.558;2022-12-18T01:47:36;-0.30;99.90
7738;DHT22;29398;45.328;5.558;2022-12-18T01:49:41;-0.30;99.90
7738;DHT22;29398;45.328;5.558;2022-12-18T01:50:43;-0.10;99.90
7738;DHT22;29398;45.328;5.558;2022-12-18T01:51:44;-0.30;99.90
7738;DHT22;29398;45.328;5.558;2022-12-18T01:52:50;-0.30;99.90
7738;DHT22;29398;45.328;5.558;2022-12-18T01:53:52;-0.40;99.90
7738;DHT22;29398;45.328;5.558;2022-12-18T01:54:54;-0.40;99.90
7738;DHT22;29398;45.328;5.558;2022-12-18T01:55:57;-0.40;99.90
7738;DHT22;29398;45.328;5.558;2022-12-18T01:56:59;-0.40;99.90
7738;DHT22;29398;45.328;5.558;2022-12-18T01:58:02;-0.40;99.90
7738;DHT22;29398;45.328;5.558;2022-12-18T01:59:05;-0.30;99.90
7738;DHT22;29398;45.328;5.558;2022-12-18T02:00:12;-0.40;99.90
7738;DHT22;29398;45.328;5.558;2022-12-18T02:01:14;-0.40;99.90
7738;DHT22;29398;45.328;5.558;2022-12-18T02:02:16;-0.40;99.90
7738;DHT22;29398;45.328;5.558;2022-12-18T02:03:19;-0.40;99.90
7738;DHT22;29398;45.328;5.558;2022-12-18T02:04:22;-0.40;99.90
7738;DHT22;29398;45.328;5.558;2022-12-18T02:05:31;-0.40;99.90
7738;DHT22;29398;45.328;5.558;2022-12-18T02:06:40;-0.40;99.90
7738;DHT22;29398;45.328;5.558;2022-12-18T02:07:48;-1.50;99.90
7738;DHT22;29398;45.328;5.558;2022-12-18T02:09:02;-0.30;99.90
7738;DHT22;29398;45.328;5.558;2022-12-18T02:10:12;-0.40;99.90
7738;DHT22;29398;45.328;5.558;2022-12-18T02:11:23;-0.40;99.90
7738;DHT22;29398;45.328;5.558;2022-12-18T02:12:31;-0.40;99.90
7738;DHT22;29398;45.328;5.558;2022-12-18T02:13:42;-0.40;99.90
7738;DHT22;29398;45.328;5.558;2022-12-18T02:14:52;-0.40;99.90
7738;DHT22;29398;45.328;5.558;2022-12-18T02:16:02;-0.30;99.90
7738;DHT22;29398;45.328;5.558;2022-12-18T02:17:09;-0.40;99.90
7738;DHT22;29398;45.328;5.558;2022-12-18T02:18:18;-0.40;99.90
7738;DHT22;29398;45.328;5.558;2022-12-18T02:19:37;-0.40;99.90
7738;DHT22;29398;45.328;5.558;2022-12-18T02:20:45;-0.40;99.90
7738;DHT22;29398;45.328;5.558;2022-12-18T02:21:54;-0.50;99.90
7738;DHT22;29398;45.328;5.558;2022-12-18T02:23:06;-0.40;99.90
7738;DHT22;29398;45.328;5.558;2022-12-18T02:24:23;-0.40;99.90
7738;DHT22;29398;45.328;5.558;2022-12-18T02:26:09;-0.40;99.90
7738;DHT22;29398;45.328;5.558;2022-12-18T02:27:14;-0.50;99.90
7738;DHT22;29398;45.328;5.558;2022-12-18T02:28:18;-0.50;99.90
7738;DHT22;29398;45.328;5.558;2022-12-18T02:29:23;-0.50;99.90
7738;DHT22;29398;45.328;5.558;2022-12-18T02:30:30;-0.50;99.90
7738;DHT22;29398;45.328;5.558;2022-12-18T02:31:38;-0.50;99.90
7738;DHT22;29398;45.328;5.558;2022-12-18T02:32:43;-0.50;99.90
7738;DHT22;29398;45.328;5.558;2022-12-18T02:33:49;-0.50;99.90
7738;DHT22;29398;45.328;5.558;2022-12-18T02:34:55;-0.40;99.90
7738;DHT22;29398;45.328;5.558;2022-12-18T02:36:02;-0.50;99.90
7738;DHT22;29398;45.328;5.558;2022-12-18T02:37:09;-0.50;99.90
7738;DHT22;29398;45.328;5.558;2022-12-18T02:38:13;-0.60;99.90
7738;DHT22;29398;45.328;5.558;2022-12-18T02:39:18;-0.50;99.90
7738;DHT22;29398;45.328;5.558;2022-12-18T02:40:31;-0.50;99.90
7738;DHT22;29398;45.328;5.558;2022-12-18T02:41:35;-0.50;99.90
7738;DHT22;29398;45.328;5.558;2022-12-18T02:42:39;-0.60;99.90
7738;DHT22;29398;45.328;5.558;2022-12-18T02:43:47;-0.50;99.90
7738;DHT22;29398;45.328;5.558;2022-12-18T02:44:51;-0.60;99.90
7738;DHT22;29398;45.328;5.558;2022-12-18T02:45:58;-0.50;99.90
7738;DHT22;29398;45.328;5.558;2022-12-18T02:47:04;-0.50;99.90
7738;DHT22;29398;45.328;5.558;2022-12-18T02:48:05;-0.50;99.90
7738;DHT22;29398;45.328;5.558;2022-12-18T02:49:21;-0.50;99.90
7738;DHT22;29398;45.328;5.558;2022-12-18T02:50:30;-0.50;99.90
7738;DHT22;29398;45.328;5.558;2022-12-18T02:51:38;-0.50;99.90
7738;DHT22;29398;45.328;5.558;2022-12-18T02:52:45;-0.50;99.90
7738;DHT22;29398;45.328;5.558;2022-12-18T02:53:53;-0.50;99.90
7738;DHT22;29398;45.328;5.558;2022-12-18T02:55:04;-0.50;99.90
7738;DHT22;29398;45.328;5.558;2022-12-18T02:56:13;-0.50;99.90
7738;DHT22;29398;45.328;5.558;2022-12-18T02:57:20;-0.60;99.90
7738;DHT22;29398;45.328;5.558;2022-12-18T02:58:30;-0.50;99.90
7738;DHT22;29398;45.328;5.558;2022-12-18T02:59:43;-0.50;99.90
7738;DHT22;29398;45.328;5.558;2022-12-18T03:00:51;-0.50;99.90
7738;DHT22;29398;45.328;5.558;2022-12-18T03:01:58;-0.50;99.90
7738;DHT22;29398;45.328;5.558;2022-12-18T03:03:06;-0.40;99.90
7738;DHT22;29398;45.328;5.558;2022-12-18T03:04:15;-0.50;99.90
7738;DHT22;29398;45.328;5.558;2022-12-18T03:05:21;-0.50;99.90
7738;DHT22;29398;45.328;5.558;2022-12-18T03:06:25;-0.50;99.90
7738;DHT22;29398;45.328;5.558;2022-12-18T03:07:35;-0.60;99.90
7738;DHT22;29398;45.328;5.558;2022-12-18T03:08:44;-0.60;99.90
7738;DHT22;29398;45.328;5.558;2022-12-18T03:09:50;-0.60;99.90
7738;DHT22;29398;45.328;5.558;2022-12-18T03:10:59;-0.60;99.90
7738;DHT22;29398;45.328;5.558;2022-12-18T03:12:06;-0.60;99.90
7738;DHT22;29398;45.328;5.558;2022-12-18T03:13:25;-0.60;99.90
7738;DHT22;29398;45.328;5.558;2022-12-18T03:14:30;-0.60;99.90
7738;DHT22;29398;45.328;5.558;2022-12-18T03:15:36;-0.60;99.90
7738;DHT22;29398;45.328;5.558;2022-12-18T03:16:43;-0.60;99.90
7738;DHT22;29398;45.328;5.558;2022-12-18T03:17:48;-0.60;99.90
7738;DHT22;29398;45.328;5.558;2022-12-18T03:18:55;-0.60;99.90
7738;DHT22;29398;45.328;5.558;2022-12-18T03:20:03;-0.60;99.90
7738;DHT22;29398;45.328;5.558;2022-12-18T03:21:08;-0.60;99.90
7738;DHT22;29398;45.328;5.558;2022-12-18T03:22:12;-0.60;99.90
7738;DHT22;29398;45.328;5.558;2022-12-18T03:23:22;-0.60;99.90
7738;DHT22;29398;45.328;5.558;2022-12-18T03:24:27;-0.60;99.90
7738;DHT22;29398;45.328;5.558;2022-12-18T03:25:35;-0.60;99.90
7738;DHT22;29398;45.328;5.558;2022-12-18T03:26:41;-0.70;99.90
7738;DHT22;29398;45.328;5.558;2022-12-18T03:27:48;-0.70;99.90
7738;DHT22;29398;45.328;5.558;2022-12-18T03:28:54;-0.70;99.90
7738;DHT22;29398;45.328;5.558;2022-12-18T03:30:02;-0.70;99.90
7738;DHT22;29398;45.328;5.558;2022-12-18T03:31:10;-0.80;99.90
7738;DHT22;29398;45.328;5.558;2022-12-18T03:32:18;-0.80;99.90
7738;DHT22;29398;45.328;5.558;2022-12-18T03:33:25;-0.70;99.90
7738;DHT22;29398;45.328;5.558;2022-12-18T03:34:35;-0.70;99.90
7738;DHT22;29398;45.328;5.558;2022-12-18T03:35:42;-0.80;99.90
7738;DHT22;29398;45.328;5.558;2022-12-18T03:36:46;-0.80;99.90
7738;DHT22;29398;45.328;5.558;2022-12-18T03:37:48;-0.80;99.90
7738;DHT22;29398;45.328;5.558;2022-12-18T03:38:51;-0.80;99.90
7738;DHT22;29398;45.328;5.558;2022-12-18T03:39:52;-0.80;99.90
7738;DHT22;29398;45.328;5.558;2022-12-18T03:41:01;-0.80;99.90
7738;DHT22;29398;45.328;5.558;2022-12-18T03:42:15;-0.80;99.90
7738;DHT22;29398;45.328;5.558;2022-12-18T03:43:34;-0.80;99.90
7738;DHT22;29398;45.328;5.558;2022-12-18T03:44:42;-0.80;99.90
7738;DHT22;29398;45.328;5.558;2022-12-18T03:45:51;-0.80;99.90
7738;DHT22;29398;45.328;5.558;2022-12-18T03:46:59;-0.80;99.90
7738;DHT22;29398;45.328;5.558;2022-12-18T03:48:08;-0.70;99.90
7738;DHT22;29398;45.328;5.558;2022-12-18T03:49:23;-0.80;99.90
7738;DHT22;29398;45.328;5.558;2022-12-18T03:50:36;-0.80;99.90
7738;DHT22;29398;45.328;5.558;2022-12-18T03:51:43;-0.80;99.90
7738;DHT22;29398;45.328;5.558;2022-12-18T03:52:53;-0.80;99.90
7738;DHT22;29398;45.328;5.558;2022-12-18T03:53:59;-0.80;99.90
7738;DHT22;29398;45.328;5.558;2022-12-18T03:55:10;-0.80;99.90
7738;DHT22;29398;45.328;5.558;2022-12-18T03:56:13;-0.80;99.90
7738;DHT22;29398;45.328;5.558;2022-12-18T03:57:21;-0.90;99.90
7738;DHT22;29398;45.328;5.558;2022-12-18T03:58:27;-0.90;99.90
7738;DHT22;29398;45.328;5.558;2022-12-18T03:59:50;-0.90;99.90
7738;DHT22;29398;45.328;5.558;2022-12-18T04:00:57;-0.90;99.90
7738;DHT22;29398;45.328;5.558;2022-12-18T04:02:01;-1.00;99.90
7738;DHT22;29398;45.328;5.558;2022-12-18T04:03:05;-0.90;99.90
7738;DHT22;29398;45.328;5.558;2022-12-18T04:04:16;-0.90;99.90
7738;DHT22;29398;45.328;5.558;2022-12-18T04:05:21;-0.90;99.90
7738;DHT22;29398;45.328;5.558;2022-12-18T04:06:25;-0.90;99.90
7738;DHT22;29398;45.328;5.558;2022-12-18T04:07:27;-0.90;99.90
7738;DHT22;29398;45.328;5.558;2022-12-18T04:08:32;-0.90;99.90
7738;DHT22;29398;45.328;5.558;2022-12-18T04:09:41;-0.90;99.90
7738;DHT22;29398;45.328;5.558;2022-12-18T04:10:43;-0.90;99.90
7738;DHT22;29398;45.328;5.558;2022-12-18T04:11:45;-0.90;99.90
7738;DHT22;29398;45.328;5.558;2022-12-18T04:12:49;-0.90;99.90
7738;DHT22;29398;45.328;5.558;2022-12-18T04:13:55;-0.90;99.90
7738;DHT22;29398;45.328;5.558;2022-12-18T04:14:59;-1.40;99.90
7738;DHT22;29398;45.328;5.558;2022-12-18T04:16:01;-1.00;99.90
7738;DHT22;29398;45.328;5.558;2022-12-18T04:17:03;-1.00;99.90
7738;DHT22;29398;45.328;5.558;2022-12-18T04:18:07;-1.00;99.90
7738;DHT22;29398;45.328;5.558;2022-12-18T04:19:14;-0.90;99.90
7738;DHT22;29398;45.328;5.558;2022-12-18T04:20:17;-0.90;99.90
7738;DHT22;29398;45.328;5.558;2022-12-18T04:21:20;-1.00;99.90
7738;DHT22;29398;45.328;5.558;2022-12-18T04:22:23;-1.00;99.90
7738;DHT22;29398;45.328;5.558;2022-12-18T04:23:30;-1.00;99.90
7738;DHT22;29398;45.328;5.558;2022-12-18T04:24:33;-1.00;99.90
7738;DHT22;29398;45.328;5.558;2022-12-18T04:25:46;-1.00;99.90
7738;DHT22;29398;45.328;5.558;2022-12-18T04:26:52;-0.90;99.90
7738;DHT22;29398;45.328;5.558;2022-12-18T04:28:00;-0.90;99.90
7738;DHT22;29398;45.328;5.558;2022-12-18T04:29:02;-1.00;99.90
7738;DHT22;29398;45.328;5.558;2022-12-18T04:30:09;-1.00;99.90
7738;DHT22;29398;45.328;5.558;2022-12-18T04:31:10;-1.00;99.90
7738;DHT22;29398;45.328;5.558;2022-12-18T04:32:13;-1.00;99.90
7738;DHT22;29398;45.328;5.558;2022-12-18T04:33:17;-1.00;99.90
7738;DHT22;29398;45.328;5.558;2022-12-18T04:34:20;-1.00;99.90
7738;DHT22;29398;45.328;5.558;2022-12-18T04:35:25;-1.00;99.90
7738;DHT22;29398;45.328;5.558;2022-12-18T04:36:27;-1.00;99.90
7738;DHT22;29398;45.328;5.558;2022-12-18T04:37:29;-1.00;99.90
7738;DHT22;29398;45.328;5.558;2022-12-18T04:38:31;-1.00;99.90
7738;DHT22;29398;45.328;5.558;2022-12-18T04:39:40;-1.00;99.90
7738;DHT22;29398;45.328;5.558;2022-12-18T04:40:47;-0.90;99.90
7738;DHT22;29398;45.328;5.558;2022-12-18T04:41:57;-0.90;99.90
7738;DHT22;29398;45.328;5.558;2022-12-18T04:42:58;-0.90;99.90
7738;DHT22;29398;45.328;5.558;2022-12-18T04:44:00;-1.00;99.90
7738;DHT22;29398;45.328;5.558;2022-12-18T04:45:01;-1.00;99.90
7738;DHT22;29398;45.328;5.558;2022-12-18T04:46:07;-0.90;99.90
7738;DHT22;29398;45.328;5.558;2022-12-18T04:47:08;-1.00;99.90
7738;DHT22;29398;45.328;5.558;2022-12-18T04:48:10;-1.00;99.90
7738;DHT22;29398;45.328;5.558;2022-12-18T04:49:11;-1.00;99.90
7738;DHT22;29398;45.328;5.558;2022-12-18T04:50:13;-1.00;99.90
7738;DHT22;29398;45.328;5.558;2022-12-18T04:51:14;-1.00;99.90
7738;DHT22;29398;45.328;5.558;2022-12-18T04:52:16;-1.00;99.90
7738;DHT22;29398;45.328;5.558;2022-12-18T04:53:18;-0.90;99.90
7738;DHT22;29398;45.328;5.558;2022-12-18T04:54:20;-1.00;99.90
7738;DHT22;29398;45.328;5.558;2022-12-18T04:55:21;-1.00;99.90
7738;DHT22;29398;45.328;5.558;2022-12-18T04:56:23;-1.00;99.90
7738;DHT22;29398;45.328;5.558;2022-12-18T04:57:24;-0.90;99.90
7738;DHT22;29398;45.328;5.558;2022-12-18T04:58:26;-0.90;99.90
7738;DHT22;29398;45.328;5.558;2022-12-18T04:59:27;-0.90;99.90
7738;DHT22;29398;45.328;5.558;2022-12-18T05:00:30;-0.90;99.90
7738;DHT22;29398;45.328;5.558;2022-12-18T05:01:35;-0.90;99.90
7738;DHT22;29398;45.328;5.558;2022-12-18T05:02:37;-0.90;99.90
7738;DHT22;29398;45.328;5.558;2022-12-18T05:03:39;-1.00;99.90
7738;DHT22;29398;45.328;5.558;2022-12-18T05:04:41;-0.90;99.90
7738;DHT22;29398;45.328;5.558;2022-12-18T05:05:42;-0.90;99.90
7738;DHT22;29398;45.328;5.558;2022-12-18T05:06:44;-0.90;99.90
7738;DHT22;29398;45.328;5.558;2022-12-18T05:07:45;-0.90;99.90
7738;DHT22;29398;45.328;5.558;2022-12-18T05:08:47;-0.90;99.90
7738;DHT22;29398;45.328;5.558;2022-12-18T05:09:48;-0.90;99.90
7738;DHT22;29398;45.328;5.558;2022-12-18T05:10:58;-0.90;99.90
7738;DHT22;29398;45.328;5.558;2022-12-18T05:11:59;-0.90;99.90
7738;DHT22;29398;45.328;5.558;2022-12-18T05:13:01;-1.00;99.90
7738;DHT22;29398;45.328;5.558;2022-12-18T05:14:02;-0.90;99.90
7738;DHT22;29398;45.328;5.558;2022-12-18T05:15:06;-0.90;99.90
7738;DHT22;29398;45.328;5.558;2022-12-18T05:16:07;-0.90;99.90
7738;DHT22;29398;45.328;5.558;2022-12-18T05:17:11;-0.80;99.90
7738;DHT22;29398;45.328;5.558;2022-12-18T05:18:12;-0.80;99.90
7738;DHT22;29398;45.328;5.558;2022-12-18T05:19:14;-0.80;99.90
7738;DHT22;29398;45.328;5.558;2022-12-18T05:20:16;-0.80;99.90
7738;DHT22;29398;45.328;5.558;2022-12-18T05:21:17;-0.80;99.90
7738;DHT22;29398;45.328;5.558;2022-12-18T05:22:19;-0.70;99.90
7738;DHT22;29398;45.328;5.558;2022-12-18T05:23:21;-0.70;99.90
7738;DHT22;29398;45.328;5.558;2022-12-18T05:24:24;-0.70;99.90
7738;DHT22;29398;45.328;5.558;2022-12-18T05:25:25;-0.70;99.90
7738;DHT22;29398;45.328;5.558;2022-12-18T05:26:27;-0.70;99.90
7738;DHT22;29398;45.328;5.558;2022-12-18T05:27:28;-0.70;99.90
7738;DHT22;29398;45.328;5.558;2022-12-18T05:28:32;-0.70;99.90
7738;DHT22;29398;45.328;5.558;2022-12-18T05:29:34;-0.70;99.90
7738;DHT22;29398;45.328;5.558;2022-12-18T05:30:36;-0.70;99.90
7738;DHT22;29398;45.328;5.558;2022-12-18T05:31:37;-0.80;99.90
7738;DHT22;29398;45.328;5.558;2022-12-18T05:32:41;-0.80;99.90
7738;DHT22;29398;45.328;5.558;2022-12-18T05:33:42;-0.80;99.90
7738;DHT22;29398;45.328;5.558;2022-12-18T05:34:44;-0.80;99.90
7738;DHT22;29398;45.328;5.558;2022-12-18T05:35:50;-0.80;99.90
7738;DHT22;29398;45.328;5.558;2022-12-18T05:36:53;-0.80;99.90
7738;DHT22;29398;45.328;5.558;2022-12-18T05:37:55;-0.80;99.90
7738;DHT22;29398;45.328;5.558;2022-12-18T05:38:56;-0.80;99.90
7738;DHT22;29398;45.328;5.558;2022-12-18T05:39:58;-0.80;99.90
7738;DHT22;29398;45.328;5.558;2022-12-18T05:40:59;-0.80;99.90
7738;DHT22;29398;45.328;5.558;2022-12-18T05:42:01;-0.80;99.90
7738;DHT22;29398;45.328;5.558;2022-12-18T05:43:02;-0.80;99.90
7738;DHT22;29398;45.328;5.558;2022-12-18T05:44:04;-0.80;99.90
7738;DHT22;29398;45.328;5.558;2022-12-18T05:45:06;-0.90;99.90
7738;DHT22;29398;45.328;5.558;2022-12-18T05:46:11;-0.90;99.90
7738;DHT22;29398;45.328;5.558;2022-12-18T05:47:13;-0.90;99.90
7738;DHT22;29398;45.328;5.558;2022-12-18T05:48:17;-0.90;99.90
7738;DHT22;29398;45.328;5.558;2022-12-18T05:49:18;-0.90;99.90
7738;DHT22;29398;45.328;5.558;2022-12-18T05:50:20;-0.90;99.90
7738;DHT22;29398;45.328;5.558;2022-12-18T05:51:22;-1.00;99.90
7738;DHT22;29398;45.328;5.558;2022-12-18T05:52:24;-1.00;99.90
7738;DHT22;29398;45.328;5.558;2022-12-18T05:53:25;-1.00;99.90
7738;DHT22;29398;45.328;5.558;2022-12-18T05:54:27;-1.00;99.90
7738;DHT22;29398;45.328;5.558;2022-12-18T05:55:28;-1.10;99.90
7738;DHT22;29398;45.328;5.558;2022-12-18T05:56:30;-1.00;99.90
7738;DHT22;29398;45.328;5.558;2022-12-18T05:57:31;-1.00;99.90
7738;DHT22;29398;45.328;5.558;2022-12-18T05:58:33;-1.00;99.90
7738;DHT22;29398;45.328;5.558;2022-12-18T05:59:34;-1.00;99.90
7738;DHT22;29398;45.328;5.558;2022-12-18T06:00:41;-1.00;99.90
7738;DHT22;29398;45.328;5.558;2022-12-18T06:01:42;-1.00;99.90
7738;DHT22;29398;45.328;5.558;2022-12-18T06:02:46;-1.00;99.90
7738;DHT22;29398;45.328;5.558;2022-12-18T06:03:49;-1.00;99.90
7738;DHT22;29398;45.328;5.558;2022-12-18T06:04:51;-1.00;99.90
7738;DHT22;29398;45.328;5.558;2022-12-18T06:05:52;-1.00;99.90
7738;DHT22;29398;45.328;5.558;2022-12-18T06:06:54;-1.10;99.90
7738;DHT22;29398;45.328;5.558;2022-12-18T06:07:55;-1.10;99.90
7738;DHT22;29398;45.328;5.558;2022-12-18T06:08:57;-1.10;99.90
7738;DHT22;29398;45.328;5.558;2022-12-18T06:09:58;-1.10;99.90
7738;DHT22;29398;45.328;5.558;2022-12-18T06:11:00;-1.10;99.90
7738;DHT22;29398;45.328;5.558;2022-12-18T06:12:01;-1.10;99.90
7738;DHT22;29398;45.328;5.558;2022-12-18T06:13:06;-1.20;99.90
7738;DHT22;29398;45.328;5.558;2022-12-18T06:14:08;-1.20;99.90
7738;DHT22;29398;45.328;5.558;2022-12-18T06:15:11;-1.20;99.90
7738;DHT22;29398;45.328;5.558;2022-12-18T06:16:12;-1.20;99.90
7738;DHT22;29398;45.328;5.558;2022-12-18T06:17:14;-1.20;99.90
7738;DHT22;29398;45.328;5.558;2022-12-18T06:18:16;-1.20;99.90
7738;DHT22;29398;45.328;5.558;2022-12-18T06:19:19;-1.20;99.90
7738;DHT22;29398;45.328;5.558;2022-12-18T06:20:21;-1.20;99.90
7738;DHT22;29398;45.328;5.558;2022-12-18T06:21:22;-1.20;99.90
7738;DHT22;29398;45.328;5.558;2022-12-18T06:22:24;-1.20;99.90
7738;DHT22;29398;45.328;5.558;2022-12-18T06:23:25;-1.10;99.90
7738;DHT22;29398;45.328;5.558;2022-12-18T06:24:28;-1.10;99.90
7738;DHT22;29398;45.328;5.558;2022-12-18T06:25:29;-1.10;99.90
7738;DHT22;29398;45.328;5.558;2022-12-18T06:26:31;-1.10;99.90
7738;DHT22;29398;45.328;5.558;2022-12-18T06:27:32;-1.10;99.90
7738;DHT22;29398;45.328;5.558;2022-12-18T06:28:34;-1.10;99.90
7738;DHT22;29398;45.328;5.558;2022-12-18T06:29:35;-1.10;99.90
7738;DHT22;29398;45.328;5.558;2022-12-18T06:30:37;-1.10;99.90
7738;DHT22;29398;45.328;5.558;2022-12-18T06:31:38;-1.10;99.90
7738;DHT22;29398;45.328;5.558;2022-12-18T06:32:40;-1.10;99.90
7738;DHT22;29398;45.328;5.558;2022-12-18T06:33:42;-1.10;99.90
7738;DHT22;29398;45.328;5.558;2022-12-18T06:34:45;-1.10;99.90
7738;DHT22;29398;45.328;5.558;2022-12-18T06:35:46;-1.00;99.90
7738;DHT22;29398;45.328;5.558;2022-12-18T06:36:49;-1.00;99.90
7738;DHT22;29398;45.328;5.558;2022-12-18T06:37:50;-0.90;99.90
7738;DHT22;29398;45.328;5.558;2022-12-18T06:38:52;-0.90;99.90
7738;DHT22;29398;45.328;5.558;2022-12-18T06:39:53;-0.90;99.90
7738;DHT22;29398;45.328;5.558;2022-12-18T06:40:57;-0.80;99.90
7738;DHT22;29398;45.328;5.558;2022-12-18T06:41:58;-0.80;99.90
7738;DHT22;29398;45.328;5.558;2022-12-18T06:43:00;-0.80;99.90
7738;DHT22;29398;45.328;5.558;2022-12-18T06:44:01;-0.70;99.90
7738;DHT22;29398;45.328;5.558;2022-12-18T06:45:04;-0.70;99.90
7738;DHT22;29398;45.328;5.558;2022-12-18T06:46:05;-0.60;99.90
7738;DHT22;29398;45.328;5.558;2022-12-18T06:47:08;-0.60;99.90
7738;DHT22;29398;45.328;5.558;2022-12-18T06:48:09;-0.60;99.90
7738;DHT22;29398;45.328;5.558;2022-12-18T06:49:11;-0.60;99.90
7738;DHT22;29398;45.328;5.558;2022-12-18T06:50:14;-0.50;99.90
7738;DHT22;29398;45.328;5.558;2022-12-18T06:51:18;-0.50;99.90
7738;DHT22;29398;45.328;5.558;2022-12-18T06:52:19;-0.40;99.90
7738;DHT22;29398;45.328;5.558;2022-12-18T06:53:21;-0.50;99.90
7738;DHT22;29398;45.328;5.558;2022-12-18T06:54:22;-0.40;99.90
7738;DHT22;29398;45.328;5.558;2022-12-18T06:55:24;-0.40;99.90